createdAt,value
2018-06-20T00:00:06.804Z,17.69
2018-06-20T00:02:35.698Z,17.70
2018-06-20T00:05:03.614Z,17.67
2018-06-20T00:07:32.051Z,17.70
2018-06-20T00:10:04.995Z,17.58
2018-06-20T00:12:37.950Z,17.45
2018-06-20T00:15:05.940Z,17.40
2018-06-20T00:17:43.423Z,17.40
2018-06-20T00:20:18.422Z,17.33
2018-06-20T00:22:47.034Z,17.19
2018-06-20T00:25:21.197Z,17.12
2018-06-20T00:27:54.394Z,17.17
2018-06-20T00:30:25.374Z,17.17
2018-06-20T00:32:55.304Z,17.17
2018-06-20T00:38:06.659Z,17.20
2018-06-20T00:40:33.572Z,17.22
2018-06-20T00:43:00.530Z,17.30
2018-06-20T00:45:27.479Z,17.17
2018-06-20T00:47:54.439Z,17.14
2018-06-20T00:50:21.386Z,16.98
2018-06-20T00:52:49.071Z,16.91
2018-06-20T00:55:26.946Z,17.01
2018-06-20T00:58:03.578Z,17.07
2018-06-20T01:00:38.094Z,17.14
2018-06-20T01:03:06.602Z,17.10
2018-06-20T01:05:34.358Z,17.09
2018-06-20T01:08:01.330Z,16.97
2018-06-20T01:10:30.338Z,16.93
2018-06-20T01:13:05.787Z,16.93
2018-06-20T01:15:33.767Z,16.97
2018-06-20T01:18:01.546Z,16.95
2018-06-20T01:20:32.182Z,17.00
2018-06-20T01:22:59.161Z,16.97
2018-06-20T01:25:29.081Z,16.81
2018-06-20T01:27:55.989Z,16.85
2018-06-20T01:30:23.671Z,16.74
2018-06-20T01:32:56.699Z,16.68
2018-06-20T01:35:25.603Z,16.79
2018-06-20T01:37:57.586Z,16.71
2018-06-20T01:40:27.469Z,16.76
2018-06-20T01:42:57.428Z,16.56
2018-06-20T01:45:24.407Z,16.52
2018-06-20T01:47:59.542Z,16.41
2018-06-20T01:50:31.525Z,16.47
2018-06-20T01:53:08.426Z,16.46
2018-06-20T01:55:36.463Z,16.55
2018-06-20T01:58:10.517Z,16.51
2018-06-20T02:00:42.040Z,16.51
2018-06-20T02:03:08.955Z,16.84
2018-06-20T02:05:36.918Z,16.54
2018-06-20T02:08:07.899Z,16.41
2018-06-20T02:10:36.902Z,16.41
2018-06-20T02:13:05.178Z,16.32
2018-06-20T02:15:36.230Z,16.37
2018-06-20T02:18:09.427Z,16.43
2018-06-20T02:20:45.914Z,16.33
2018-06-20T02:23:22.290Z,16.33
2018-06-20T02:25:51.082Z,16.19
2018-06-20T02:28:28.395Z,16.27
2018-06-20T02:31:01.187Z,16.28
2018-06-20T02:33:29.645Z,16.35
2018-06-20T02:36:22.710Z,16.21
2018-06-20T02:41:51.074Z,16.20
2018-06-20T02:44:18.034Z,16.21
2018-06-20T02:46:49.506Z,16.26
2018-06-20T02:49:21.462Z,16.31
2018-06-20T02:51:48.419Z,16.18
2018-06-20T02:54:17.127Z,16.23
2018-06-20T02:56:44.076Z,16.12
2018-06-20T02:59:18.826Z,16.24
2018-06-20T03:01:54.214Z,16.12
2018-06-20T03:04:25.634Z,16.19
2018-06-20T03:06:54.181Z,16.27
2018-06-20T03:09:26.798Z,16.19
2018-06-20T03:12:00.532Z,16.16
2018-06-20T03:14:30.531Z,16.08
2018-06-20T03:16:57.393Z,16.02
2018-06-20T03:19:32.590Z,16.07
2018-06-20T03:22:03.946Z,16.14
2018-06-20T03:24:33.953Z,16.10
2018-06-20T03:27:03.994Z,16.16
2018-06-20T03:29:33.947Z,16.11
2018-06-20T03:32:00.943Z,16.17
2018-06-20T03:34:40.672Z,16.25
2018-06-20T03:37:08.198Z,16.23
2018-06-20T03:39:38.147Z,16.33
2018-06-20T03:42:14.932Z,16.63
2018-06-20T03:44:47.935Z,17.07
2018-06-20T03:47:22.989Z,17.45
2018-06-20T03:50:00.951Z,17.77
2018-06-20T03:52:34.233Z,18.06
2018-06-20T03:55:03.751Z,18.35
2018-06-20T03:57:30.718Z,18.46
2018-06-20T03:59:58.210Z,18.66
2018-06-20T04:02:28.162Z,18.93
2018-06-20T04:04:58.142Z,19.05
2018-06-20T04:07:25.061Z,19.03
2018-06-20T04:09:52.697Z,19.14
2018-06-20T04:12:21.742Z,19.14
2018-06-20T04:14:51.251Z,19.41
2018-06-20T04:17:18.245Z,19.68
2018-06-20T04:19:45.138Z,20.10
2018-06-20T04:22:13.675Z,20.44
2018-06-20T04:24:40.610Z,20.57
2018-06-20T04:27:12.704Z,20.96
2018-06-20T04:29:40.174Z,21.08
2018-06-20T04:32:07.082Z,21.00
2018-06-20T04:34:35.801Z,20.93
2018-06-20T04:37:10.359Z,20.98
2018-06-20T04:39:39.269Z,20.83
2018-06-20T04:42:06.295Z,20.77
2018-06-20T04:44:34.266Z,20.54
2018-06-20T04:47:01.143Z,20.70
2018-06-20T04:49:33.874Z,20.87
2018-06-20T04:52:01.726Z,21.07
2018-06-20T04:54:28.670Z,21.45
2018-06-20T04:56:57.266Z,21.54
2018-06-20T04:59:25.107Z,21.24
2018-06-20T05:02:10.035Z,21.16
2018-06-20T05:04:38.726Z,20.57
2018-06-20T05:07:06.162Z,20.32
2018-06-20T05:09:33.061Z,20.04
2018-06-20T05:11:59.997Z,20.07
2018-06-20T05:14:27.652Z,20.10
2018-06-20T05:16:59.362Z,20.08
2018-06-20T05:19:26.312Z,20.18
2018-06-20T05:22:04.642Z,20.55
2018-06-20T05:24:32.178Z,20.74
2018-06-20T05:27:11.797Z,20.89
2018-06-20T05:29:39.225Z,21.26
2018-06-20T05:32:07.771Z,21.13
2018-06-20T05:34:37.253Z,20.96
2018-06-20T05:37:10.474Z,20.99
2018-06-20T05:39:53.594Z,21.39
2018-06-20T05:42:22.254Z,21.60
2018-06-20T05:44:54.467Z,21.45
2018-06-20T05:47:27.551Z,21.47
2018-06-20T05:49:57.498Z,21.38
2018-06-20T05:52:32.179Z,21.54
2018-06-20T05:55:05.222Z,21.90
2018-06-20T05:57:33.243Z,21.90
2018-06-20T06:00:04.472Z,22.03
2018-06-20T06:02:32.362Z,22.25
2018-06-20T06:05:02.251Z,22.12
2018-06-20T06:07:31.114Z,22.35
2018-06-20T06:09:58.032Z,21.86
2018-06-20T06:12:27.966Z,21.78
2018-06-20T06:14:54.921Z,21.61
2018-06-20T06:17:24.880Z,21.96
2018-06-20T06:19:56.222Z,22.28
2018-06-20T06:22:26.139Z,22.31
2018-06-20T06:24:54.053Z,22.75
2018-06-20T06:27:22.789Z,22.69
2018-06-20T06:29:50.291Z,23.09
2018-06-20T06:32:20.187Z,22.97
2018-06-20T06:34:50.138Z,22.98
2018-06-20T06:37:18.884Z,23.16
2018-06-20T06:39:47.855Z,22.93
2018-06-20T06:42:15.863Z,23.26
2018-06-20T06:44:42.798Z,23.23
2018-06-20T06:47:10.789Z,23.16
2018-06-20T06:49:40.378Z,23.09
2018-06-20T06:52:10.210Z,23.30
2018-06-20T06:54:37.778Z,23.52
2018-06-20T06:57:05.266Z,23.92
2018-06-20T06:59:38.304Z,23.39
2018-06-20T07:02:08.803Z,23.73
2018-06-20T07:04:36.228Z,23.67
2018-06-20T07:07:04.858Z,24.06
2018-06-20T07:09:31.930Z,23.93
2018-06-20T07:12:00.822Z,23.64
2018-06-20T07:14:30.335Z,24.28
2018-06-20T07:17:01.906Z,24.45
2018-06-20T07:19:32.007Z,24.43
2018-06-20T07:21:58.989Z,24.55
2018-06-20T07:24:31.330Z,24.29
2018-06-20T07:27:00.915Z,24.11
2018-06-20T07:29:28.795Z,24.37
2018-06-20T07:31:55.770Z,24.67
2018-06-20T07:34:23.323Z,25.05
2018-06-20T07:36:50.763Z,24.67
2018-06-20T07:39:18.422Z,24.89
2018-06-20T07:41:46.342Z,25.05
2018-06-20T07:44:29.173Z,24.87
2018-06-20T07:46:56.190Z,24.77
2018-06-20T07:49:26.858Z,24.74
2018-06-20T07:51:56.372Z,24.87
2018-06-20T07:54:26.325Z,25.03
2018-06-20T07:56:56.178Z,25.41
2018-06-20T07:59:50.374Z,25.28
2018-06-20T08:02:34.742Z,25.55
2018-06-20T08:05:07.350Z,25.63
2018-06-20T08:07:40.151Z,25.38
2018-06-20T08:10:15.762Z,26.08
2018-06-20T08:12:48.434Z,25.87
2018-06-20T08:15:22.168Z,25.57
2018-06-20T08:17:54.874Z,25.76
2018-06-20T08:20:23.946Z,25.80
2018-06-20T08:22:52.862Z,26.22
2018-06-20T08:25:22.791Z,26.33
2018-06-20T08:27:49.755Z,26.42
2018-06-20T08:30:16.601Z,26.39
2018-06-20T08:32:43.620Z,26.40
2018-06-20T08:35:10.667Z,26.90
2018-06-20T08:37:37.554Z,26.82
2018-06-20T08:40:08.626Z,27.16
2018-06-20T08:42:38.601Z,27.77
2018-06-20T08:45:05.521Z,27.92
2018-06-20T08:47:32.470Z,27.68
2018-06-20T08:50:00.329Z,27.20
2018-06-20T08:52:28.377Z,26.59
2018-06-20T08:54:57.322Z,26.67
2018-06-20T08:57:24.343Z,27.26
2018-06-20T08:59:52.927Z,27.65
2018-06-20T09:02:20.803Z,27.41
2018-06-20T09:04:56.530Z,28.21
2018-06-20T09:07:30.274Z,28.64
2018-06-20T09:10:03.019Z,28.82
2018-06-20T09:12:36.630Z,28.49
2018-06-20T09:15:09.326Z,28.16
2018-06-20T09:17:49.494Z,28.97
2018-06-20T09:20:17.360Z,29.08
2018-06-20T09:22:45.278Z,28.79
2018-06-20T09:25:13.135Z,28.95
2018-06-20T09:27:40.102Z,29.36
2018-06-20T09:30:07.145Z,28.88
2018-06-20T09:32:34.015Z,29.16
2018-06-20T09:35:00.974Z,29.37
2018-06-20T09:37:28.789Z,29.69
2018-06-20T09:39:56.679Z,28.83
2018-06-20T09:42:25.417Z,29.06
2018-06-20T09:44:52.899Z,29.87
2018-06-20T09:47:19.754Z,29.84
2018-06-20T09:49:49.481Z,29.70
2018-06-20T09:55:17.438Z,29.16
2018-06-20T09:57:44.358Z,29.51
2018-06-20T10:00:20.742Z,29.57
2018-06-20T10:02:53.402Z,29.08
2018-06-20T10:05:26.150Z,29.00
2018-06-20T10:07:58.718Z,28.76
2018-06-20T10:10:31.333Z,28.83
2018-06-20T10:13:04.694Z,28.77
2018-06-20T10:15:40.158Z,29.45
2018-06-20T10:18:08.970Z,29.55
2018-06-20T10:20:35.817Z,30.57
2018-06-20T10:23:05.750Z,30.22
2018-06-20T10:25:32.701Z,29.60
2018-06-20T10:28:11.079Z,29.92
2018-06-20T10:30:38.066Z,30.27
2018-06-20T10:33:06.062Z,30.17
2018-06-20T10:35:33.030Z,29.99
2018-06-20T10:37:59.977Z,29.63
2018-06-20T10:40:26.945Z,29.50
2018-06-20T10:42:53.886Z,29.91
2018-06-20T10:45:26.489Z,29.69
2018-06-20T10:47:53.437Z,30.20
2018-06-20T10:50:20.390Z,29.74
2018-06-20T10:52:47.934Z,30.07
2018-06-20T10:55:15.961Z,29.97
2018-06-20T10:57:48.623Z,30.35
2018-06-20T11:00:24.965Z,30.24
2018-06-20T11:02:58.138Z,30.04
2018-06-20T11:05:30.926Z,30.17
2018-06-20T11:08:03.691Z,30.44
2018-06-20T11:10:36.378Z,30.55
2018-06-20T11:13:13.029Z,30.74
2018-06-20T11:15:40.107Z,31.41
2018-06-20T11:18:07.003Z,31.70
2018-06-20T11:20:39.801Z,31.75
2018-06-20T11:23:06.791Z,31.65
2018-06-20T11:25:33.726Z,31.36
2018-06-20T11:28:02.707Z,30.97
2018-06-20T11:30:31.510Z,30.80
2018-06-20T11:33:00.023Z,30.63
2018-06-20T11:35:26.994Z,30.84
2018-06-20T11:38:02.529Z,30.97
2018-06-20T11:40:30.515Z,30.75
2018-06-20T11:42:57.469Z,31.01
2018-06-20T11:45:44.033Z,30.77
2018-06-20T11:48:10.909Z,30.98
2018-06-20T11:50:37.818Z,31.01
2018-06-20T11:53:09.762Z,31.17
2018-06-20T11:55:38.921Z,31.63
2018-06-20T11:58:12.163Z,31.88
2018-06-20T12:00:47.799Z,31.81
2018-06-20T12:03:20.557Z,31.24
2018-06-20T12:05:53.458Z,31.13
2018-06-20T12:08:30.520Z,31.42
2018-06-20T12:11:06.838Z,31.45
2018-06-20T12:13:39.442Z,31.23
2018-06-20T12:16:13.176Z,30.77
2018-06-20T12:18:45.682Z,30.65
2018-06-20T12:21:18.463Z,30.38
2018-06-20T12:23:51.103Z,30.55
2018-06-20T12:26:24.787Z,30.50
2018-06-20T12:29:01.230Z,30.29
2018-06-20T12:31:34.591Z,30.96
2018-06-20T12:34:12.094Z,31.39
2018-06-20T12:36:45.807Z,31.80
2018-06-20T12:39:13.158Z,31.74
2018-06-20T12:41:46.866Z,32.34
2018-06-20T12:44:40.182Z,32.12
2018-06-20T12:47:12.099Z,32.01
2018-06-20T12:49:43.218Z,31.26
2018-06-20T12:52:10.162Z,30.79
2018-06-20T12:54:37.094Z,30.69
2018-06-20T12:57:06.031Z,30.59
2018-06-20T12:59:39.237Z,31.14
2018-06-20T13:02:06.186Z,31.51
2018-06-20T13:04:33.274Z,31.77
2018-06-20T13:07:00.227Z,31.95
2018-06-20T13:09:27.184Z,31.31
2018-06-20T13:11:54.131Z,31.24
2018-06-20T13:14:22.853Z,30.84
2018-06-20T13:16:49.058Z,31.03
2018-06-20T13:19:21.546Z,30.40
2018-06-20T13:21:51.995Z,30.47
2018-06-20T13:24:21.108Z,30.76
2018-06-20T13:26:48.107Z,30.94
2018-06-20T13:29:16.038Z,31.39
2018-06-20T13:31:49.250Z,31.26
2018-06-20T13:34:23.000Z,31.22
2018-06-20T13:39:32.754Z,31.18
2018-06-20T13:42:06.874Z,31.23
2018-06-20T13:44:35.526Z,31.64
2018-06-20T13:47:11.277Z,31.66
2018-06-20T13:49:38.154Z,31.63
2018-06-20T13:52:06.142Z,31.22
2018-06-20T13:54:36.590Z,31.09
2018-06-20T13:57:03.594Z,31.15
2018-06-20T13:59:33.535Z,31.29
2018-06-20T14:02:01.046Z,31.32
2018-06-20T14:04:28.022Z,31.23
2018-06-20T14:07:00.219Z,31.63
2018-06-20T14:09:33.298Z,31.55
2018-06-20T14:12:00.232Z,31.68
2018-06-20T14:14:27.134Z,31.90
2018-06-20T14:16:54.082Z,31.97
2018-06-20T14:19:29.946Z,32.07
2018-06-20T14:21:59.878Z,31.82
2018-06-20T14:24:26.822Z,31.70
2018-06-20T14:26:56.924Z,31.79
2018-06-20T14:29:40.869Z,32.08
2018-06-20T14:32:14.354Z,32.49
2018-06-20T14:34:47.038Z,33.23
2018-06-20T14:37:20.311Z,33.55
2018-06-20T14:39:53.150Z,33.55
2018-06-20T14:42:25.822Z,34.04
2018-06-20T14:45:07.838Z,35.06
2018-06-20T14:47:34.960Z,35.59
2018-06-20T14:50:01.943Z,36.04
2018-06-20T14:52:28.910Z,36.04
2018-06-20T14:57:31.991Z,36.73
2018-06-20T14:59:58.989Z,35.92
2018-06-20T15:02:39.362Z,36.62
2018-06-20T15:05:12.566Z,37.19
2018-06-20T15:07:39.550Z,37.33
2018-06-20T15:10:06.494Z,37.72
2018-06-20T15:12:37.127Z,38.03
2018-06-20T15:15:04.123Z,39.31
2018-06-20T15:17:33.161Z,39.77
2018-06-20T15:20:00.582Z,39.05
2018-06-20T15:22:45.485Z,38.56
2018-06-20T15:25:12.407Z,38.82
2018-06-20T15:27:45.278Z,39.11
2018-06-20T15:30:18.074Z,39.46
2018-06-20T15:32:51.886Z,39.70
2018-06-20T15:35:24.701Z,38.67
2018-06-20T15:37:57.402Z,39.01
2018-06-20T15:40:25.442Z,39.71
2018-06-20T15:42:53.225Z,39.87
2018-06-20T15:45:20.148Z,40.92
2018-06-20T15:47:48.107Z,41.38
2018-06-20T15:50:15.058Z,41.25
2018-06-20T15:52:42.059Z,41.32
2018-06-20T15:55:08.971Z,41.15
2018-06-20T15:57:36.922Z,41.19
2018-06-20T16:00:04.314Z,41.44
2018-06-20T16:02:31.282Z,41.47
2018-06-20T16:04:58.205Z,42.21
2018-06-20T16:07:26.198Z,41.82
2018-06-20T16:09:56.539Z,41.65
2018-06-20T16:12:23.662Z,41.36
2018-06-20T16:14:50.662Z,41.39
2018-06-20T16:17:18.181Z,42.04
2018-06-20T16:19:54.185Z,40.93
2018-06-20T16:22:30.847Z,41.10
2018-06-20T16:25:04.371Z,41.18
2018-06-20T16:27:37.062Z,42.11
2018-06-20T16:30:16.999Z,42.15
2018-06-20T16:32:43.909Z,42.86
2018-06-20T16:35:10.870Z,44.03
2018-06-20T16:37:37.843Z,44.15
2018-06-20T16:40:04.786Z,44.60
2018-06-20T16:42:31.763Z,44.71
2018-06-20T16:44:58.726Z,44.63
2018-06-20T16:47:26.683Z,43.89
2018-06-20T16:49:53.650Z,42.87
2018-06-20T16:52:20.642Z,43.99
2018-06-20T16:54:47.559Z,44.60
2018-06-20T16:57:14.531Z,44.99
2018-06-20T16:59:41.475Z,43.75
2018-06-20T17:02:14.252Z,45.44
2018-06-20T17:04:41.230Z,46.07
2018-06-20T17:07:08.191Z,45.82
2018-06-20T17:09:35.166Z,45.11
2018-06-20T17:12:22.633Z,46.11
2018-06-20T17:14:56.236Z,45.57
2018-06-20T17:17:28.898Z,45.63
2018-06-20T17:20:01.543Z,45.21
2018-06-20T17:22:34.158Z,44.79
2018-06-20T17:25:06.973Z,43.91
2018-06-20T17:27:37.190Z,44.22
2018-06-20T17:30:04.842Z,43.25
2018-06-20T17:32:31.738Z,43.15
2018-06-20T17:34:58.686Z,43.16
2018-06-20T17:37:25.655Z,43.54
2018-06-20T17:39:52.609Z,42.73
2018-06-20T17:42:27.533Z,43.31
2018-06-20T17:44:54.525Z,43.05
2018-06-20T17:47:21.474Z,43.02
2018-06-20T17:49:49.202Z,43.67
2018-06-20T17:52:17.111Z,42.74
2018-06-20T17:54:44.194Z,42.72
2018-06-20T17:57:11.187Z,42.66
2018-06-20T17:59:38.102Z,43.06
2018-06-20T18:02:06.990Z,42.81
2018-06-20T18:04:40.475Z,42.51
2018-06-20T18:07:13.038Z,41.92
2018-06-20T18:09:46.502Z,42.93
2018-06-20T18:12:19.245Z,42.67
2018-06-20T18:14:52.417Z,42.43
2018-06-20T18:17:19.370Z,42.81
2018-06-20T18:19:46.318Z,42.65
2018-06-20T18:22:13.278Z,42.72
2018-06-20T18:24:40.233Z,42.66
2018-06-20T18:27:08.621Z,42.05
2018-06-20T18:29:37.321Z,41.49
2018-06-20T18:32:04.329Z,40.99
2018-06-20T18:34:31.266Z,40.39
2018-06-20T18:36:58.236Z,40.17
2018-06-20T18:39:38.159Z,38.37
2018-06-20T18:42:05.125Z,36.63
2018-06-20T18:44:32.081Z,34.94
2018-06-20T18:46:59.042Z,33.60
2018-06-20T18:49:26.046Z,32.84
2018-06-20T18:51:52.954Z,32.13
2018-06-20T18:54:20.018Z,31.85
2018-06-20T18:56:47.182Z,31.41
2018-06-20T18:59:20.077Z,30.59
2018-06-20T19:01:52.918Z,29.72
2018-06-20T19:04:25.588Z,29.21
2018-06-20T19:06:59.079Z,29.04
2018-06-20T19:09:25.989Z,29.06
2018-06-20T19:11:52.886Z,28.81
2018-06-20T19:14:19.846Z,28.53
2018-06-20T19:16:50.518Z,28.41
2018-06-20T19:19:21.194Z,28.24
2018-06-20T19:21:48.202Z,28.12
2018-06-20T19:24:15.146Z,27.74
2018-06-20T19:26:42.135Z,27.46
2018-06-20T19:29:10.094Z,27.17
2018-06-20T19:31:39.970Z,27.04
2018-06-20T19:34:06.874Z,26.87
2018-06-20T19:36:33.814Z,26.26
2018-06-20T19:39:23.325Z,25.92
2018-06-20T19:41:50.238Z,26.00
2018-06-20T19:44:36.301Z,25.61
2018-06-20T19:47:06.403Z,25.41
2018-06-20T19:49:36.734Z,25.34
2018-06-20T19:52:08.212Z,25.43
2018-06-20T19:54:41.493Z,24.41
2018-06-20T19:57:11.446Z,24.39
2018-06-20T19:59:39.547Z,24.18
2018-06-20T20:02:06.532Z,24.04
2018-06-20T20:04:33.646Z,24.01
2018-06-20T20:07:00.614Z,24.13
2018-06-20T20:09:29.290Z,24.05
2018-06-20T20:11:56.295Z,24.06
2018-06-20T20:14:23.186Z,24.13
2018-06-20T20:16:50.144Z,23.91
2018-06-20T20:19:17.134Z,23.76
2018-06-20T20:21:44.086Z,23.79
2018-06-20T20:24:12.074Z,23.64
2018-06-20T20:26:45.027Z,23.50
2018-06-20T20:29:11.902Z,24.11
2018-06-20T20:31:38.886Z,23.55
2018-06-20T20:34:05.859Z,23.59
2018-06-20T20:36:32.813Z,23.55
2018-06-20T20:39:00.258Z,23.58
2018-06-20T20:41:27.244Z,23.55
2018-06-20T20:43:54.181Z,23.52
2018-06-20T20:46:21.746Z,23.59
2018-06-20T20:48:55.969Z,23.48
2018-06-20T20:51:25.910Z,23.41
2018-06-20T20:53:54.801Z,23.35
2018-06-20T20:56:21.774Z,23.43
2018-06-20T20:58:49.298Z,23.35
2018-06-20T21:01:19.290Z,23.26
2018-06-20T21:03:46.918Z,23.11
2018-06-20T21:06:13.938Z,22.92
2018-06-20T21:08:40.939Z,22.91
2018-06-20T21:11:08.871Z,22.72
2018-06-20T21:13:37.084Z,23.30
2018-06-20T21:16:05.052Z,22.68
2018-06-20T21:18:32.062Z,22.75
2018-06-20T21:20:59.019Z,22.63
2018-06-20T21:23:27.027Z,22.74
2018-06-20T21:25:56.925Z,22.83
2018-06-20T21:28:24.813Z,22.81
2018-06-20T21:30:51.756Z,22.93
2018-06-20T21:33:19.310Z,23.05
2018-06-20T21:35:47.839Z,23.01
2018-06-20T21:38:15.274Z,23.03
2018-06-20T21:40:43.773Z,22.93
2018-06-20T21:43:10.660Z,23.04
2018-06-20T21:45:38.298Z,23.12
2018-06-20T21:48:06.879Z,23.24
2018-06-20T21:50:33.786Z,23.34
2018-06-20T21:53:01.763Z,23.77
2018-06-20T21:55:29.302Z,23.31
2018-06-20T21:57:56.794Z,23.16
2018-06-20T22:00:25.493Z,23.14
2018-06-20T22:02:52.351Z,23.22
2018-06-20T22:05:26.302Z,23.14
2018-06-20T22:07:59.495Z,23.00
2018-06-20T22:10:29.378Z,22.67
2018-06-20T22:12:59.022Z,22.38
2018-06-20T22:15:26.814Z,22.18
2018-06-20T22:17:57.050Z,22.18
2018-06-20T22:20:30.231Z,22.34
2018-06-20T22:22:57.249Z,22.33
2018-06-20T22:25:24.851Z,22.26
2018-06-20T22:27:57.878Z,22.23
2018-06-20T22:30:32.301Z,22.20
2018-06-20T22:33:05.414Z,22.19
2018-06-20T22:35:32.854Z,22.17
2018-06-20T22:37:59.826Z,22.15
2018-06-20T22:40:29.446Z,22.13
2018-06-20T22:42:58.387Z,22.14
2018-06-20T22:45:29.727Z,22.14
2018-06-20T22:47:56.662Z,22.14
2018-06-20T22:50:26.590Z,21.99
2018-06-20T22:52:55.614Z,21.91
2018-06-20T22:55:23.446Z,21.69
2018-06-20T22:57:52.382Z,21.51
2018-06-20T23:00:19.875Z,21.40
2018-06-20T23:02:46.830Z,21.36
2018-06-20T23:05:13.778Z,21.30
2018-06-20T23:07:42.834Z,21.21
2018-06-20T23:10:14.502Z,21.23
2018-06-20T23:12:42.433Z,21.22
2018-06-20T23:15:15.466Z,21.20
2018-06-20T23:17:45.330Z,21.19
2018-06-20T23:20:18.461Z,21.21
2018-06-20T23:22:45.919Z,21.17
2018-06-20T23:25:14.419Z,21.14
2018-06-20T23:27:44.342Z,21.15
2018-06-20T23:30:11.214Z,21.14
2018-06-20T23:32:43.726Z,21.23
2018-06-20T23:35:10.672Z,21.22
2018-06-20T23:37:41.539Z,21.24
2018-06-20T23:40:13.538Z,21.25
2018-06-20T23:42:42.789Z,21.26
2018-06-20T23:45:14.669Z,21.23
2018-06-20T23:47:41.658Z,21.20
2018-06-20T23:50:09.533Z,21.25
2018-06-20T23:52:37.366Z,21.30
2018-06-20T23:55:05.031Z,21.34
2018-06-20T23:57:33.142Z,21.41
